Tokyo Triumph — 9V3477 — position and weather

sailwx.info

Track history (hours):
 
Tides and Currents Weather Stations Pressure Air Temp Water Temp Dewpoint Dewpoint Depression Visibility Wind Speed Wind Dir Waves Ship Positions

Tokyo Triumph

Last reported at 2017-Nov-11 11:18 UTC. Time now 2017-Nov-18 08:53 UTC.
Position N 36°16' E 015°06'.

Length 365 m; draft 14.2 m.

Type: Cargo ship. MMSI: 563020400.

Date/timePositionNaut miles runAvg speedWind from/ knotsBaromVisibWave heightAir tempDewpointWater temp
2017-Nov-11 11:18N 36°16' E 015°06'715.7
2017-Nov-11 10:50N 36°19' E 014°57'715.9
2017-Nov-11 10:25N 36°21' E 014°49'615.9
2017-Nov-11 10:01N 36°22' E 014°42'816.3
2017-Nov-11 09:30N 36°25' E 014°32'916.6
2017-Nov-11 09:00N 36°27' E 014°22'816.7
2017-Nov-11 08:30N 36°30' E 014°12'817.0
2017-Nov-11 08:00N 36°32' E 014°02'916.8
2017-Nov-11 07:30N 36°34' E 013°52'916.7
2017-Nov-11 06:59N 36°37' E 013°42'1116.9
2017-Nov-11 06:22N 36°40' E 013°29'  
2017-Nov-08 23:25N 36°00' W 005°16'818.6
2017-Nov-08 23:00N 35°58' W 005°25'17217.0
2017-Nov-08 12:55N 36°30' W 008°54'8815.1
2017-Nov-08 07:06N 37°45' W 009°51'216.9
2017-Nov-08 07:00N 37°47' W 009°52'917.1
2017-Nov-08 06:28N 37°56' W 009°55'817.4
2017-Nov-08 06:00N 38°03' W 009°57'916.9
2017-Nov-08 05:30N 38°12' W 009°59'917.2
2017-Nov-08 05:00N 38°20' W 010°01'917.1
2017-Nov-08 04:31N 38°29' W 010°03'917.6
2017-Nov-08 04:00N 38°37' W 010°05'917.4
2017-Nov-08 03:30N 38°46' W 010°06'917.0
2017-Nov-08 03:00N 38°54' W 010°07'816.5
2017-Nov-08 02:30N 39°03' W 010°07'816.8
2017-Nov-08 02:00N 39°11' W 010°07'917.2
2017-Nov-08 01:30N 39°20' W 010°07'917.4
2017-Nov-08 00:58N 39°29' W 010°06'72315.5
2017-Nov-06 02:14N 50°08' W 002°10'520.1
2017-Nov-06 02:00N 50°09' W 002°03'1019.8
2017-Nov-06 01:30N 50°11' W 001°48'919.0
2017-Nov-06 01:01N 50°14' W 001°34'917.9
2017-Nov-06 00:30N 50°16' W 001°20'816.8
2017-Nov-06 00:01N 50°19' W 001°08'2014.5
2017-Nov-05 22:40N 50°24' W 000°38'213.3
2017-Nov-05 22:29N 50°25' W 000°35'613.2
2017-Nov-05 22:00N 50°26' W 000°25'613.1
2017-Nov-05 21:30N 50°28' W 000°15'713.2
2017-Nov-05 20:58N 50°30' W 000°05'613.3
2017-Nov-05 20:30N 50°32' E 000°05'713.9
2017-Nov-05 20:00N 50°34' E 000°16'714.7
2017-Nov-05 19:30N 50°36' E 000°26'815.6
2017-Nov-05 19:00N 50°39' E 000°38'816.9
2017-Nov-05 18:30N 50°43' E 000°49'917.2
2017-Nov-05 18:00N 50°48' E 001°01'917.2
2017-Nov-05 17:30N 50°52' E 001°13'917.0
2017-Nov-05 17:00N 50°58' E 001°23'816.0
2017-Nov-05 16:30N 51°04' E 001°31'815.1
2017-Nov-05 16:00N 51°09' E 001°40'714.5
2017-Nov-05 15:30N 51°14' E 001°47'713.9
2017-Nov-05 15:01N 51°20' E 001°54'713.6
2017-Nov-05 14:31N 51°26' E 001°59'713.5
2017-Nov-05 14:01N 51°31' E 002°06'713.4
2017-Nov-05 13:31N 51°36' E 002°13'713.4
2017-Nov-05 13:00N 51°41' E 002°21'3714.0
2017-Nov-05 10:19N 52°02' E 003°12'515.6
2017-Nov-05 09:59N 52°02' E 003°20'915.3
2017-Nov-05 09:23N 52°03' E 003°35'615.5
2017-Nov-05 09:00N 52°02' E 003°44'713.8
2017-Nov-05 08:30N 52°02' E 003°55'3 5.6
2017-Nov-05 08:00N 52°00' E 003°59'4 8.9
2017-Nov-05 07:30N 51°58' E 004°05'1 2.5
2017-Nov-05 07:00N 51°57' E 004°04'0 0.2
2017-Nov-05 06:29N 51°57' E 004°04'0 0.0
2017-Nov-05 05:59N 51°57' E 004°04'0 0.0
2017-Nov-05 05:29N 51°57' E 004°04'0 0.0
2017-Nov-05 04:59N 51°57' E 004°04'0 0.0
2017-Nov-05 04:29N 51°57' E 004°04'0 0.0
2017-Nov-05 03:59N 51°57' E 004°04'0 0.0
2017-Nov-05 03:29N 51°57' E 004°04'0 0.0
2017-Nov-05 02:59N 51°57' E 004°04'0 0.0
2017-Nov-05 02:29N 51°57' E 004°04'0 0.0
2017-Nov-05 01:59N 51°57' E 004°04'0 0.0
2017-Nov-05 01:29N 51°57' E 004°04'0 0.0
2017-Nov-05 00:59N 51°57' E 004°04'0 0.0
2017-Nov-05 00:29N 51°57' E 004°04'0 0.0
2017-Nov-04 23:59N 51°57' E 004°04'0 0.0
2017-Nov-04 23:29N 51°57' E 004°04'0 0.0
2017-Nov-04 22:59N 51°57' E 004°04'0 0.0
2017-Nov-04 22:29N 51°57' E 004°04'0 0.0
2017-Nov-04 21:59N 51°57' E 004°04'0 0.0
2017-Nov-04 21:29N 51°57' E 004°04'0 0.0
2017-Nov-04 20:59N 51°57' E 004°04'0 0.0
2017-Nov-04 20:29N 51°57' E 004°04'0 0.0
2017-Nov-04 19:59N 51°57' E 004°04'0 0.0
2017-Nov-04 19:26N 51°57' E 004°04'0 0.0
2017-Nov-04 18:59N 51°57' E 004°04'0 0.0
2017-Nov-04 18:29N 51°57' E 004°04'0 0.0
2017-Nov-04 17:59N 51°57' E 004°04'0 0.0
2017-Nov-04 17:29N 51°57' E 004°04'0 0.0
2017-Nov-04 16:59N 51°57' E 004°04'0 0.0
2017-Nov-04 16:29N 51°57' E 004°04'0 0.0
2017-Nov-04 15:59N 51°57' E 004°04'0 0.0
2017-Nov-04 15:29N 51°57' E 004°04'0 0.0
2017-Nov-04 14:56N 51°57' E 004°04'0 0.0
2017-Nov-04 14:29N 51°57' E 004°04'0 0.0
2017-Nov-04 13:56N 51°57' E 004°04'0 0.0
2017-Nov-04 13:29N 51°57' E 004°04'0 0.0
2017-Nov-04 12:59N 51°57' E 004°04'0 0.0
2017-Nov-04 12:29N 51°57' E 004°04'0 0.0
2017-Nov-04 11:59N 51°57' E 004°04'0 0.0
2017-Nov-04 11:29N 51°57' E 004°04'0 0.0
2017-Nov-04 10:59N 51°57' E 004°04'0 0.0
2017-Nov-04 10:29N 51°57' E 004°04'0 0.0
2017-Nov-04 09:59N 51°57' E 004°04'0 0.0
2017-Nov-04 09:29N 51°57' E 004°04'0 0.0
2017-Nov-04 08:59N 51°57' E 004°04'0 0.0
2017-Nov-04 08:29N 51°57' E 004°04'0 0.0
2017-Nov-04 07:59N 51°57' E 004°04'0 0.0
2017-Nov-04 07:29N 51°57' E 004°04'0 0.0
2017-Nov-04 06:56N 51°57' E 004°04'0 0.0
2017-Nov-04 06:29N 51°57' E 004°04'0 0.0
2017-Nov-04 05:59N 51°57' E 004°04'0 0.0
2017-Nov-04 05:29N 51°57' E 004°04'0 0.0
2017-Nov-04 04:59N 51°57' E 004°04'0 0.0
2017-Nov-04 04:29N 51°57' E 004°04'0 0.0
2017-Nov-04 03:59N 51°57' E 004°04'0 0.0
2017-Nov-04 03:29N 51°57' E 004°04'0 0.0
2017-Nov-04 02:59N 51°57' E 004°04'0 0.0
2017-Nov-04 02:29N 51°57' E 004°04'0 0.0
2017-Nov-04 01:59N 51°57' E 004°04'0 0.0
2017-Nov-04 01:29N 51°57' E 004°04'0 0.0
2017-Nov-04 00:59N 51°57' E 004°04'0 0.0
2017-Nov-04 00:29N 51°57' E 004°04'0 0.0
2017-Nov-03 23:59N 51°57' E 004°04'0 0.0
2017-Nov-03 23:29N 51°57' E 004°04'0 0.0
2017-Nov-03 22:59N 51°57' E 004°04'0 0.0
2017-Nov-03 22:29N 51°57' E 004°04'0 0.0
2017-Nov-03 21:59N 51°57' E 004°04'0 0.0
2017-Nov-03 21:29N 51°57' E 004°04'0 0.0
2017-Nov-03 20:59N 51°57' E 004°04'0 0.0
2017-Nov-03 20:29N 51°57' E 004°04'0 0.0
2017-Nov-03 19:59N 51°57' E 004°04'0 0.0
2017-Nov-03 19:29N 51°57' E 004°04'0 0.0
2017-Nov-03 18:59N 51°57' E 004°04'0 0.0
2017-Nov-03 18:29N 51°57' E 004°04'0 0.0
2017-Nov-03 17:59N 51°57' E 004°04'0 0.0
2017-Nov-03 17:29N 51°57' E 004°04'0 0.0
2017-Nov-03 16:59N 51°57' E 004°04'0 0.0
2017-Nov-03 16:29N 51°57' E 004°04'0 0.0
2017-Nov-03 15:59N 51°57' E 004°04'0 0.0
2017-Nov-03 15:29N 51°57' E 004°04'0 0.0
2017-Nov-03 14:59N 51°57' E 004°04'0 0.0
2017-Nov-03 14:29N 51°57' E 004°04'0 0.0
2017-Nov-03 14:01N 51°57' E 004°04'1 3.0
2017-Nov-03 13:30N 51°58' E 004°05'4 8.2
2017-Nov-03 13:00N 52°00' E 003°59'510.8
2017-Nov-03 12:30N 52°02' E 003°51'5 9.9
2017-Nov-03 12:00N 52°01' E 003°43'4 8.7
2017-Nov-03 11:30N 52°04' E 003°38'510.1
2017-Nov-03 11:00N 52°07' E 003°31'611.4
2017-Nov-03 10:29N 52°10' E 003°23'4 9.1
2017-Nov-03 10:00N 52°15' E 003°22'713.2
2017-Nov-03 09:30N 52°21' E 003°26'713.9
2017-Nov-03 09:00N 52°28' E 003°28'714.1
2017-Nov-03 08:29N 52°35' E 003°30'714.5
2017-Nov-03 07:59N 52°41' E 003°36'715.2
2017-Nov-03 07:30N 52°47' E 003°43'815.9
2017-Nov-03 07:01N 52°53' E 003°52'917.1
2017-Nov-03 06:30N 52°59' E 004°02'817.0
2017-Nov-03 06:00N 53°04' E 004°13'816.3
2017-Nov-03 05:30N 53°10' E 004°23'816.2
2017-Nov-03 05:00N 53°17' E 004°29'816.4
2017-Nov-03 04:30N 53°25' E 004°35'714.6
2017-Nov-03 04:00N 53°29' E 004°44'815.9
2017-Nov-03 03:30N 53°32' E 004°56'815.9
2017-Nov-03 03:01N 53°35' E 005°09'816.2
2017-Nov-03 02:29N 53°38' E 005°22'816.0
2017-Nov-03 02:00N 53°40' E 005°35'7916.5
2017-Nov-02 21:12N 54°02' E 007°44'317.1
2017-Nov-02 21:00N 54°02' E 007°50'917.1
2017-Nov-02 20:30N 54°01' E 008°04'613.2
2017-Nov-02 20:00N 54°00' E 008°15'713.6
2017-Nov-02 19:31N 53°59' E 008°26'714.5
2017-Nov-02 19:00N 53°57' E 008°38'612.9
2017-Nov-02 18:30N 53°52' E 008°44'714.9
2017-Nov-02 18:00N 53°51' E 008°57'816.8
2017-Nov-02 17:30N 53°53' E 009°11'815.6
2017-Nov-02 17:00N 53°49' E 009°22'815.7
2017-Nov-02 16:31N 53°42' E 009°29'612.9
2017-Nov-02 16:01N 53°37' E 009°34'612.4
2017-Nov-02 15:31N 53°34' E 009°44'5 9.9
2017-Nov-02 15:01N 53°33' E 009°52'2 3.5
2017-Nov-02 14:30N 53°32' E 009°55'0 0.1
2017-Nov-02 14:00N 53°32' E 009°55'0 0.0
2017-Nov-02 13:30N 53°32' E 009°55'0 0.0
2017-Nov-02 13:00N 53°32' E 009°55'0 0.1
2017-Nov-02 12:30N 53°32' E 009°55'0 0.0
2017-Nov-02 12:00N 53°32' E 009°55'0 0.1
2017-Nov-02 11:30N 53°32' E 009°55'0 0.0
2017-Nov-02 11:00N 53°32' E 009°55'0 0.0
2017-Nov-02 10:30N 53°32' E 009°55'0 0.0
2017-Nov-02 10:00N 53°32' E 009°55'0 0.0
2017-Nov-02 09:30N 53°32' E 009°55'0 0.0
2017-Nov-02 09:00N 53°32' E 009°55'0 0.0
2017-Nov-02 08:30N 53°32' E 009°55'0 0.0
2017-Nov-02 08:00N 53°32' E 009°55'0 0.0
2017-Nov-02 07:30N 53°32' E 009°55'0 0.0
2017-Nov-02 06:58N 53°32' E 009°55'0 0.0
2017-Nov-02 06:28N 53°32' E 009°55'0 0.0
2017-Nov-02 05:58N 53°32' E 009°55'0 0.0
2017-Nov-02 05:28N 53°32' E 009°55'0 0.0
2017-Nov-02 04:55N 53°32' E 009°55'0 0.0
2017-Nov-02 04:28N 53°32' E 009°55'0 0.1
2017-Nov-02 03:58N 53°32' E 009°55'0 0.0
2017-Nov-02 03:28N 53°32' E 009°55'0 0.0
2017-Nov-02 02:58N 53°32' E 009°55'0 0.0
2017-Nov-02 02:28N 53°32' E 009°55'0 0.0
2017-Nov-02 01:58N 53°32' E 009°55'0 0.0
2017-Nov-02 01:28N 53°32' E 009°55'0 0.0
2017-Nov-02 00:58N 53°32' E 009°55'0 0.0
2017-Nov-02 00:28N 53°32' E 009°55'0 0.0
2017-Nov-01 23:58N 53°32' E 009°55'0 0.0
2017-Nov-01 23:28N 53°32' E 009°55'0 0.0
2017-Nov-01 22:58N 53°32' E 009°55'0 0.0
2017-Nov-01 22:28N 53°32' E 009°55'0 0.1
2017-Nov-01 21:58N 53°32' E 009°55'0 0.0
2017-Nov-01 21:28N 53°32' E 009°55'0 0.0
2017-Nov-01 20:58N 53°32' E 009°55'0 0.0
2017-Nov-01 20:28N 53°32' E 009°55'0 0.0
2017-Nov-01 19:58N 53°32' E 009°55'0 0.0
2017-Nov-01 19:28N 53°32' E 009°55'0 0.0
2017-Nov-01 18:58N 53°32' E 009°55'0 0.0
2017-Nov-01 18:28N 53°32' E 009°55'  
Track history (hours):
 
Tides and Currents Weather Stations Pressure Air Temp Water Temp Dewpoint Dewpoint Depression Visibility Wind Speed Wind Dir Waves Ship Positions

Tokyo Triumph

Last reported at 2017-Nov-11 11:18 UTC. Time now 2017-Nov-18 08:53 UTC.
Position N 36°16' E 015°06'.

Length 365 m; draft 14.2 m.

Type: Cargo ship. MMSI: 563020400.

Date/timePositionNaut miles runAvg speedWind from/ knotsBaromVisibWave heightAir tempDewpointWater temp
2017-Nov-11 11:18N 36°16' E 015°06'715.7
2017-Nov-11 10:50N 36°19' E 014°57'715.9
2017-Nov-11 10:25N 36°21' E 014°49'615.9
2017-Nov-11 10:01N 36°22' E 014°42'816.3
2017-Nov-11 09:30N 36°25' E 014°32'916.6
2017-Nov-11 09:00N 36°27' E 014°22'816.7
2017-Nov-11 08:30N 36°30' E 014°12'817.0
2017-Nov-11 08:00N 36°32' E 014°02'916.8
2017-Nov-11 07:30N 36°34' E 013°52'916.7
2017-Nov-11 06:59N 36°37' E 013°42'1116.9
2017-Nov-11 06:22N 36°40' E 013°29'  
2017-Nov-08 23:25N 36°00' W 005°16'818.6
2017-Nov-08 23:00N 35°58' W 005°25'17217.0
2017-Nov-08 12:55N 36°30' W 008°54'8815.1
2017-Nov-08 07:06N 37°45' W 009°51'216.9
2017-Nov-08 07:00N 37°47' W 009°52'917.1
2017-Nov-08 06:28N 37°56' W 009°55'817.4
2017-Nov-08 06:00N 38°03' W 009°57'916.9
2017-Nov-08 05:30N 38°12' W 009°59'917.2
2017-Nov-08 05:00N 38°20' W 010°01'917.1
2017-Nov-08 04:31N 38°29' W 010°03'917.6
2017-Nov-08 04:00N 38°37' W 010°05'917.4
2017-Nov-08 03:30N 38°46' W 010°06'917.0
2017-Nov-08 03:00N 38°54' W 010°07'816.5
2017-Nov-08 02:30N 39°03' W 010°07'816.8
2017-Nov-08 02:00N 39°11' W 010°07'917.2
2017-Nov-08 01:30N 39°20' W 010°07'917.4
2017-Nov-08 00:58N 39°29' W 010°06'72315.5
2017-Nov-06 02:14N 50°08' W 002°10'520.1
2017-Nov-06 02:00N 50°09' W 002°03'1019.8
2017-Nov-06 01:30N 50°11' W 001°48'919.0
2017-Nov-06 01:01N 50°14' W 001°34'917.9
2017-Nov-06 00:30N 50°16' W 001°20'816.8
2017-Nov-06 00:01N 50°19' W 001°08'2014.5
2017-Nov-05 22:40N 50°24' W 000°38'213.3
2017-Nov-05 22:29N 50°25' W 000°35'613.2
2017-Nov-05 22:00N 50°26' W 000°25'613.1
2017-Nov-05 21:30N 50°28' W 000°15'713.2
2017-Nov-05 20:58N 50°30' W 000°05'613.3
2017-Nov-05 20:30N 50°32' E 000°05'713.9
2017-Nov-05 20:00N 50°34' E 000°16'714.7
2017-Nov-05 19:30N 50°36' E 000°26'815.6
2017-Nov-05 19:00N 50°39' E 000°38'816.9
2017-Nov-05 18:30N 50°43' E 000°49'917.2
2017-Nov-05 18:00N 50°48' E 001°01'917.2
2017-Nov-05 17:30N 50°52' E 001°13'917.0
2017-Nov-05 17:00N 50°58' E 001°23'816.0
2017-Nov-05 16:30N 51°04' E 001°31'815.1
2017-Nov-05 16:00N 51°09' E 001°40'714.5
2017-Nov-05 15:30N 51°14' E 001°47'713.9
2017-Nov-05 15:01N 51°20' E 001°54'713.6
2017-Nov-05 14:31N 51°26' E 001°59'713.5
2017-Nov-05 14:01N 51°31' E 002°06'713.4
2017-Nov-05 13:31N 51°36' E 002°13'713.4
2017-Nov-05 13:00N 51°41' E 002°21'3714.0
2017-Nov-05 10:19N 52°02' E 003°12'515.6
2017-Nov-05 09:59N 52°02' E 003°20'915.3
2017-Nov-05 09:23N 52°03' E 003°35'615.5
2017-Nov-05 09:00N 52°02' E 003°44'713.8
2017-Nov-05 08:30N 52°02' E 003°55'3 5.6
2017-Nov-05 08:00N 52°00' E 003°59'4 8.9
2017-Nov-05 07:30N 51°58' E 004°05'1 2.5
2017-Nov-05 07:00N 51°57' E 004°04'0 0.2
2017-Nov-05 06:29N 51°57' E 004°04'0 0.0
2017-Nov-05 05:59N 51°57' E 004°04'0 0.0
2017-Nov-05 05:29N 51°57' E 004°04'0 0.0
2017-Nov-05 04:59N 51°57' E 004°04'0 0.0
2017-Nov-05 04:29N 51°57' E 004°04'0 0.0
2017-Nov-05 03:59N 51°57' E 004°04'0 0.0
2017-Nov-05 03:29N 51°57' E 004°04'0 0.0
2017-Nov-05 02:59N 51°57' E 004°04'0 0.0
2017-Nov-05 02:29N 51°57' E 004°04'0 0.0
2017-Nov-05 01:59N 51°57' E 004°04'0 0.0
2017-Nov-05 01:29N 51°57' E 004°04'0 0.0
2017-Nov-05 00:59N 51°57' E 004°04'0 0.0
2017-Nov-05 00:29N 51°57' E 004°04'0 0.0
2017-Nov-04 23:59N 51°57' E 004°04'0 0.0
2017-Nov-04 23:29N 51°57' E 004°04'0 0.0
2017-Nov-04 22:59N 51°57' E 004°04'0 0.0
2017-Nov-04 22:29N 51°57' E 004°04'0 0.0
2017-Nov-04 21:59N 51°57' E 004°04'0 0.0
2017-Nov-04 21:29N 51°57' E 004°04'0 0.0
2017-Nov-04 20:59N 51°57' E 004°04'0 0.0
2017-Nov-04 20:29N 51°57' E 004°04'0 0.0
2017-Nov-04 19:59N 51°57' E 004°04'0 0.0
2017-Nov-04 19:26N 51°57' E 004°04'0 0.0
2017-Nov-04 18:59N 51°57' E 004°04'0 0.0
2017-Nov-04 18:29N 51°57' E 004°04'0 0.0
2017-Nov-04 17:59N 51°57' E 004°04'0 0.0
2017-Nov-04 17:29N 51°57' E 004°04'0 0.0
2017-Nov-04 16:59N 51°57' E 004°04'0 0.0
2017-Nov-04 16:29N 51°57' E 004°04'0 0.0
2017-Nov-04 15:59N 51°57' E 004°04'0 0.0
2017-Nov-04 15:29N 51°57' E 004°04'0 0.0
2017-Nov-04 14:56N 51°57' E 004°04'0 0.0
2017-Nov-04 14:29N 51°57' E 004°04'0 0.0
2017-Nov-04 13:56N 51°57' E 004°04'0 0.0
2017-Nov-04 13:29N 51°57' E 004°04'0 0.0
2017-Nov-04 12:59N 51°57' E 004°04'0 0.0
2017-Nov-04 12:29N 51°57' E 004°04'0 0.0
2017-Nov-04 11:59N 51°57' E 004°04'0 0.0
2017-Nov-04 11:29N 51°57' E 004°04'0 0.0
2017-Nov-04 10:59N 51°57' E 004°04'0 0.0
2017-Nov-04 10:29N 51°57' E 004°04'0 0.0
2017-Nov-04 09:59N 51°57' E 004°04'0 0.0
2017-Nov-04 09:29N 51°57' E 004°04'0 0.0
2017-Nov-04 08:59N 51°57' E 004°04'0 0.0
2017-Nov-04 08:29N 51°57' E 004°04'0 0.0
2017-Nov-04 07:59N 51°57' E 004°04'0 0.0
2017-Nov-04 07:29N 51°57' E 004°04'0 0.0
2017-Nov-04 06:56N 51°57' E 004°04'0 0.0
2017-Nov-04 06:29N 51°57' E 004°04'0 0.0
2017-Nov-04 05:59N 51°57' E 004°04'0 0.0
2017-Nov-04 05:29N 51°57' E 004°04'0 0.0
2017-Nov-04 04:59N 51°57' E 004°04'0 0.0
2017-Nov-04 04:29N 51°57' E 004°04'0 0.0
2017-Nov-04 03:59N 51°57' E 004°04'0 0.0
2017-Nov-04 03:29N 51°57' E 004°04'0 0.0
2017-Nov-04 02:59N 51°57' E 004°04'0 0.0
2017-Nov-04 02:29N 51°57' E 004°04'0 0.0
2017-Nov-04 01:59N 51°57' E 004°04'0 0.0
2017-Nov-04 01:29N 51°57' E 004°04'0 0.0
2017-Nov-04 00:59N 51°57' E 004°04'0 0.0
2017-Nov-04 00:29N 51°57' E 004°04'0 0.0
2017-Nov-03 23:59N 51°57' E 004°04'0 0.0
2017-Nov-03 23:29N 51°57' E 004°04'0 0.0
2017-Nov-03 22:59N 51°57' E 004°04'0 0.0
2017-Nov-03 22:29N 51°57' E 004°04'0 0.0
2017-Nov-03 21:59N 51°57' E 004°04'0 0.0
2017-Nov-03 21:29N 51°57' E 004°04'0 0.0
2017-Nov-03 20:59N 51°57' E 004°04'0 0.0
2017-Nov-03 20:29N 51°57' E 004°04'0 0.0
2017-Nov-03 19:59N 51°57' E 004°04'0 0.0
2017-Nov-03 19:29N 51°57' E 004°04'0 0.0
2017-Nov-03 18:59N 51°57' E 004°04'0 0.0
2017-Nov-03 18:29N 51°57' E 004°04'0 0.0
2017-Nov-03 17:59N 51°57' E 004°04'0 0.0
2017-Nov-03 17:29N 51°57' E 004°04'0 0.0
2017-Nov-03 16:59N 51°57' E 004°04'0 0.0
2017-Nov-03 16:29N 51°57' E 004°04'0 0.0
2017-Nov-03 15:59N 51°57' E 004°04'0 0.0
2017-Nov-03 15:29N 51°57' E 004°04'0 0.0
2017-Nov-03 14:59N 51°57' E 004°04'0 0.0
2017-Nov-03 14:29N 51°57' E 004°04'0 0.0
2017-Nov-03 14:01N 51°57' E 004°04'1 3.0
2017-Nov-03 13:30N 51°58' E 004°05'4 8.2
2017-Nov-03 13:00N 52°00' E 003°59'510.8
2017-Nov-03 12:30N 52°02' E 003°51'5 9.9
2017-Nov-03 12:00N 52°01' E 003°43'4 8.7
2017-Nov-03 11:30N 52°04' E 003°38'510.1
2017-Nov-03 11:00N 52°07' E 003°31'611.4
2017-Nov-03 10:29N 52°10' E 003°23'4 9.1
2017-Nov-03 10:00N 52°15' E 003°22'713.2
2017-Nov-03 09:30N 52°21' E 003°26'713.9
2017-Nov-03 09:00N 52°28' E 003°28'714.1
2017-Nov-03 08:29N 52°35' E 003°30'714.5
2017-Nov-03 07:59N 52°41' E 003°36'715.2
2017-Nov-03 07:30N 52°47' E 003°43'815.9
2017-Nov-03 07:01N 52°53' E 003°52'917.1
2017-Nov-03 06:30N 52°59' E 004°02'817.0
2017-Nov-03 06:00N 53°04' E 004°13'816.3
2017-Nov-03 05:30N 53°10' E 004°23'816.2
2017-Nov-03 05:00N 53°17' E 004°29'816.4
2017-Nov-03 04:30N 53°25' E 004°35'714.6
2017-Nov-03 04:00N 53°29' E 004°44'815.9
2017-Nov-03 03:30N 53°32' E 004°56'815.9
2017-Nov-03 03:01N 53°35' E 005°09'816.2
2017-Nov-03 02:29N 53°38' E 005°22'816.0
2017-Nov-03 02:00N 53°40' E 005°35'7916.5
2017-Nov-02 21:12N 54°02' E 007°44'317.1
2017-Nov-02 21:00N 54°02' E 007°50'917.1
2017-Nov-02 20:30N 54°01' E 008°04'613.2
2017-Nov-02 20:00N 54°00' E 008°15'713.6
2017-Nov-02 19:31N 53°59' E 008°26'714.5
2017-Nov-02 19:00N 53°57' E 008°38'612.9
2017-Nov-02 18:30N 53°52' E 008°44'714.9
2017-Nov-02 18:00N 53°51' E 008°57'816.8
2017-Nov-02 17:30N 53°53' E 009°11'815.6
2017-Nov-02 17:00N 53°49' E 009°22'815.7
2017-Nov-02 16:31N 53°42' E 009°29'612.9
2017-Nov-02 16:01N 53°37' E 009°34'612.4
2017-Nov-02 15:31N 53°34' E 009°44'5 9.9
2017-Nov-02 15:01N 53°33' E 009°52'2 3.5
2017-Nov-02 14:30N 53°32' E 009°55'0 0.1
2017-Nov-02 14:00N 53°32' E 009°55'0 0.0
2017-Nov-02 13:30N 53°32' E 009°55'0 0.0
2017-Nov-02 13:00N 53°32' E 009°55'0 0.1
2017-Nov-02 12:30N 53°32' E 009°55'0 0.0
2017-Nov-02 12:00N 53°32' E 009°55'0 0.1
2017-Nov-02 11:30N 53°32' E 009°55'0 0.0
2017-Nov-02 11:00N 53°32' E 009°55'0 0.0
2017-Nov-02 10:30N 53°32' E 009°55'0 0.0
2017-Nov-02 10:00N 53°32' E 009°55'0 0.0
2017-Nov-02 09:30N 53°32' E 009°55'0 0.0
2017-Nov-02 09:00N 53°32' E 009°55'0 0.0
2017-Nov-02 08:30N 53°32' E 009°55'0 0.0
2017-Nov-02 08:00N 53°32' E 009°55'0 0.0
2017-Nov-02 07:30N 53°32' E 009°55'0 0.0
2017-Nov-02 06:58N 53°32' E 009°55'0 0.0
2017-Nov-02 06:28N 53°32' E 009°55'0 0.0
2017-Nov-02 05:58N 53°32' E 009°55'0 0.0
2017-Nov-02 05:28N 53°32' E 009°55'0 0.0
2017-Nov-02 04:55N 53°32' E 009°55'0 0.0
2017-Nov-02 04:28N 53°32' E 009°55'0 0.1
2017-Nov-02 03:58N 53°32' E 009°55'0 0.0
2017-Nov-02 03:28N 53°32' E 009°55'0 0.0
2017-Nov-02 02:58N 53°32' E 009°55'0 0.0
2017-Nov-02 02:28N 53°32' E 009°55'0 0.0
2017-Nov-02 01:58N 53°32' E 009°55'0 0.0
2017-Nov-02 01:28N 53°32' E 009°55'0 0.0
2017-Nov-02 00:58N 53°32' E 009°55'0 0.0
2017-Nov-02 00:28N 53°32' E 009°55'0 0.0
2017-Nov-01 23:58N 53°32' E 009°55'0 0.0
2017-Nov-01 23:28N 53°32' E 009°55'0 0.0
2017-Nov-01 22:58N 53°32' E 009°55'0 0.0
2017-Nov-01 22:28N 53°32' E 009°55'0 0.1
2017-Nov-01 21:58N 53°32' E 009°55'0 0.0
2017-Nov-01 21:28N 53°32' E 009°55'0 0.0
2017-Nov-01 20:58N 53°32' E 009°55'0 0.0
2017-Nov-01 20:28N 53°32' E 009°55'0 0.0
2017-Nov-01 19:58N 53°32' E 009°55'0 0.0
2017-Nov-01 19:28N 53°32' E 009°55'0 0.0
2017-Nov-01 18:58N 53°32' E 009°55'0 0.0
2017-Nov-01 18:28N 53°32' E 009°55'  

Dump ship's entire track history